Flight Track Log - Related Links

Times and Time Zones

All times are in EDT time to prevent confusion due to time zone crossing. See the DLH1927 flight status page for this flight to view local times or setup timezone preferences in your user account.

Time Position Orientation Groundspeed Altitude Reporting Facility
EDT Latitude Longitude Course Direction KTS MPH feet Rate Location/Type
Wed 06:11:15 AM 40.9083 14.2842 347° North  Level Estimated
Wed 06:12:15 AM 40.9975 14.2579 347° North  Level Estimated
Wed 06:13:15 AM 41.0867 14.2315 347° North  Level Estimated
Wed 06:14:15 AM 41.1759 14.2050 347° North  Level Estimated
Wed 06:15:15 AM 41.2651 14.1784 347° North  Level Estimated
Wed 06:16:15 AM 41.3543 14.1518 347° North  Level Estimated
Wed 06:17:15 AM 41.4435 14.1251 347° North  Level Estimated
Wed 06:18:15 AM 41.5326 14.0983 347° North  Level Estimated
Wed 06:19:15 AM 41.6218 14.0715 347° North  Level Estimated
Wed 06:20:15 AM 41.7109 14.0446 347° North  Level Estimated
Wed 06:21:15 AM 41.8001 14.0176 347° North  Level Estimated
Wed 06:22:15 AM 41.8892 13.9905 347° North  Level Estimated
Wed 06:23:15 AM 41.9784 13.9634 347° North  Level Estimated
Wed 06:24:15 AM 42.0675 13.9362 347° North  Level Estimated
Wed 06:25:15 AM 42.1566 13.9089 347° North  Level Estimated
Wed 06:26:15 AM 42.2457 13.8815 347° North  Level Estimated
Wed 06:27:15 AM 42.3348 13.8540 347° North  Level Estimated
Wed 06:28:15 AM 42.4239 13.8265 347° North  Level Estimated
Wed 06:29:15 AM 42.5130 13.7989 347° North  Level Estimated
Wed 06:30:15 AM 42.6021 13.7712 347° North  Level Estimated
Wed 06:31:15 AM 42.6912 13.7435 347° North  Level Estimated
Wed 06:32:15 AM 42.7803 13.7156 347° North  Level Estimated
Wed 06:33:15 AM 42.8694 13.6877 347° North  Level Estimated
Wed 06:34:15 AM 42.9584 13.6597 347° North  Level Estimated
Wed 06:35:15 AM 43.0475 13.6316 347° North  Level Estimated
Wed 06:36:15 AM 43.1365 13.6034 347° North  Level Estimated
Wed 06:37:15 AM 43.2256 13.5752 347° North  Level Estimated
Wed 06:38:15 AM 43.3146 13.5469 347° North  Level Estimated
Wed 06:39:15 AM 43.4036 13.5184 347° North  Level Estimated
Wed 06:40:15 AM 43.4926 13.4899 347° North  Level Estimated
Wed 06:41:15 AM 43.5816 13.4614 347° North  Level Estimated
Wed 06:42:15 AM 43.6707 13.4327 347° North  Level Estimated
Wed 06:43:15 AM 43.7597 13.4039 347° North  Level Estimated
Wed 06:44:15 AM 43.8487 13.3751 347° North  Level Estimated
Wed 06:45:15 AM 43.9376 13.3462 347° North  Level Estimated
Wed 06:46:15 AM 44.0266 13.3172 347° North  Level Estimated
Wed 06:47:15 AM 44.1156 13.2880 347° North  Level Estimated
Wed 06:48:15 AM 44.2046 13.2589 347° North  Level Estimated
Wed 06:49:15 AM 44.2991 13.2277 347° North  Level Estimated
Wed 06:50:15 AM 44.3937 13.1965 347° North  Level Estimated
Wed 06:51:15 AM 44.4883 13.1652 347° North  Level Estimated
Wed 06:52:15 AM 44.5829 13.1337 347° North  Level Estimated
Wed 06:53:15 AM 44.6774 13.1022 347° North  Level Estimated
Wed 06:54:15 AM 44.7719 13.0705 347° North  Level Estimated
Wed 06:55:15 AM 44.8665 13.0388 347° North  Level Estimated
Wed 06:56:15 AM 44.9610 13.0070 347° North  Level Estimated
Wed 06:57:15 AM 45.0555 12.9750 347° North  Level Estimated
Wed 06:58:15 AM 45.1500 12.9430 347° North  Level Estimated
Wed 06:59:15 AM 45.2445 12.9108 347° North  Level Estimated
Wed 07:00:15 AM 45.3390 12.8785 346° North  Level Estimated
Wed 07:01:15 AM 45.4335 12.8461 346° North  Level Estimated
Wed 07:02:15 AM 45.5280 12.8136 346° North  Level Estimated
Wed 07:03:15 AM 45.6224 12.7810 346° North  Level Estimated
Wed 07:04:15 AM 45.7169 12.7483 346° North  Level Estimated
Wed 07:05:15 AM 45.8113 12.7155 346° North  Level Estimated
Wed 07:06:15 AM 45.9057 12.6826 346° North  Level Estimated
Wed 07:07:15 AM 46.0002 12.6495 346° North  Level Estimated
Wed 07:08:15 AM 46.0946 12.6164 346° North  Level Estimated
Wed 07:09:15 AM 46.1890 12.5831 346° North  Level Estimated
Wed 07:10:15 AM 46.2834 12.5497 346° North  Level Estimated
Wed 07:11:15 AM 46.3777 12.5162 346° North  Level Estimated
Wed 07:12:15 AM 46.4721 12.4826 346° North  Level Estimated
Wed 07:13:15 AM 46.5665 12.4489 346° North  Level Estimated
Wed 07:14:15 AM 46.6608 12.4150 346° North  Level Estimated
Wed 07:15:15 AM 46.7552 12.3811 346° North  Level Estimated
Wed 07:16:15 AM 46.8495 12.3470 346° North  Level Estimated
Wed 07:17:15 AM 46.9438 12.3127 346° North  Level Estimated
Wed 07:18:15 AM 47.0381 12.2784 346° North  Level Estimated
Wed 07:19:15 AM 47.1324 12.2440 346° North  Level Estimated
Wed 07:20:15 AM 47.2267 12.2094 346° North  Level Estimated
Wed 07:21:15 AM 47.3210 12.1747 346° North  Level Estimated
Wed 07:22:15 AM 47.4153 12.1399 346° North  Level Estimated
Wed 07:23:15 AM 47.5095 12.1049 346° North  Level Estimated
Wed 07:24:15 AM 47.6038 12.0699 346° North  Level Estimated
Wed 07:25:15 AM 47.6980 12.0347 346° North  Level Estimated
Wed 07:26:15 AM 47.7923 11.9994 346° North  Level Estimated
Wed 07:27:15 AM 47.8865 11.9639 346° North  Level Estimated
Wed 07:28:15 AM 47.9807 11.9283 346° North  Level Estimated
Wed 07:29:15 AM 48.0749 11.8926 346° North  Level Estimated
Wed 07:30:15 AM 48.1691 11.8568 346° North  Level Estimated
Wed 07:31:15 AM 48.2632 11.8208 346° North  Level Estimated
Wed 07:32:15 AM 48.3574 11.7847 166° South  Level Estimated
Wed 07:33:15 AM 48.2633 11.8209 346° North  Level Estimated
Wed 07:34:15 AM 48.3574 11.7847 166° South  Level Estimated
Wed 07:35:15 AM 48.2633 11.8209 346° North  Level Estimated
Wed 07:36:15 AM 48.3574 11.7847 346° North  Level Estimated

Login

Don't have an account? Register now (free) for customized features, flight alerts, and more!